KMTN

Martin State Airport

Baltimore, Maryland, USA
METAR KMTN 182150Z 19005KT 10SM SCT100 31/21 A2991
Observed Flight Rules
Jun-18 @ 21:50 UTC (46 minutes ago) Visual Flight Rules
Wind Visibility Clouds
190° at 5 knots 10 miles
  • Scattered at 10,000' AGL
Temperatures Readings
Current 31°C / 88°F
Dewpoint 21°C / 70°F
Humidity 55%
Altimeter 29.91" Hg
Pressure 1013 hPa
Elevation 7
METAR KMTN 182150Z 19005KT 10SM SCT100 31/21 A2991
Observed Flight Rules
Jun-18 @ 21:50 UTC
(46 minutes ago)
VFR
Wind Visibility
190° at 5 knots 10 miles
Clouds
  • Scattered at 10,000' AGL
Temperature Dewpoint
31°C / 88°F 21°C / 70°F
Humidity Altimeter Pressure
55% 29.91" Hg 1013 hPa